aviador You're here:

KTCM Decoded Metar

TACOMA in WA, USA
Report Time2017-03-30 18:18:00
UTC Time2017-03-30 18:29:31
Flight Rules vfr VFR
Wind200° at 05 kt
W.Decomp.*RWY 16: 4.7 kt HW 1.7 kt RCW
W.Rank200° ranks 3
Current wind is below 200° avg. (7.0)
Visibility9999 m
Phenomena:N/A
Clouds:Scattered 016 Hf
Broken 070 Hf
Expected CloudBase > 800 ft AGL from Temp-Dew spread
Ceiling7,000 ft
Temp09°C (ISA -5)
Dew Point07°C (87% RH)
AAT6.5°C
QNH1023 hPa
Density Alt-522 ft
Elevation322 ft
Report Wrong Elevation
Raw Report
KTCM 301818Z AUTO 20005KT 10SM SCT016 BKN070 09/07 A3020 RMK AO2
CIG 017 RWY34 $=

Extra information for KTCM:More info

Metar Taf Metar & Taf Last 4 Metars F.Rules Stats Wind Profile Meteogram Temp Stats Airport Information Weather charts Add Link Nearby VenuesMetar ALERT Operation Metar Decoded Social comments

AIRNAV info for KTCM